Time;durP1;ratioP1;P1;durP2;ratioP2;P2;SDS_P1;SDS_P2;PMS_P1;PMS_P2;Temp;Humidity;BMP_temperature;BMP_pressure;BME280_temperature;BME280_humidity;BME280_pressure;Samples;Min_cycle;Max_cycle;Signal;HPM_P1;HPM_P2
2022/07/26 00:01:22;;;;;;;11.13;4.63;;;23.60;86.40;;;;;;5116455;28;20027;-53
2022/07/26 00:03:48;;;;;;;18.45;4.93;;;23.60;86.60;;;;;;5116291;28;20088;-52
2022/07/26 00:06:15;;;;;;;7.03;4.65;;;23.60;86.50;;;;;;5115929;28;20032;-53
2022/07/26 00:08:41;;;;;;;8.68;4.13;;;23.60;87.10;;;;;;5115980;28;20028;-53
2022/07/26 00:11:06;;;;;;;11.57;4.25;;;23.60;86.80;;;;;;5097473;28;20121;-51
2022/07/26 00:13:33;;;;;;;6.78;4.63;;;23.60;87.00;;;;;;5080050;28;20045;-52
2022/07/26 00:15:59;;;;;;;7.95;4.82;;;23.60;86.50;;;;;;5115674;28;20034;-51
2022/07/26 00:18:25;;;;;;;7.80;4.65;;;23.60;87.20;;;;;;5115756;28;20066;-52
2022/07/26 00:20:51;;;;;;;10.45;5.30;;;23.60;86.60;;;;;;5116509;28;20031;-51
2022/07/26 00:23:18;;;;;;;10.82;5.60;;;23.60;86.70;;;;;;5115806;28;20036;-53
2022/07/26 00:25:44;;;;;;;10.55;4.85;;;23.50;87.20;;;;;;5115436;28;20035;-50
2022/07/26 00:28:10;;;;;;;12.52;5.80;;;23.50;87.40;;;;;;5115635;28;20102;-51
2022/07/26 00:30:36;;;;;;;10.50;5.15;;;23.40;87.20;;;;;;5115179;28;20415;-52
2022/07/26 00:33:02;;;;;;;8.90;4.80;;;23.40;87.50;;;;;;5062812;28;20041;-52
2022/07/26 00:35:27;;;;;;;7.63;5.47;;;23.40;87.30;;;;;;5074220;28;20027;-52
2022/07/26 00:37:53;;;;;;;8.30;5.03;;;23.40;87.60;;;;;;5115112;28;20031;-51
2022/07/26 00:40:19;;;;;;;10.45;5.90;;;23.30;87.70;;;;;;5068627;28;20043;-51
2022/07/26 00:42:45;;;;;;;10.18;5.70;;;23.40;99.90;;;;;;5070626;28;20066;-52
2022/07/26 00:45:12;;;;;;;10.48;5.63;;;23.30;99.90;;;;;;5115039;28;20027;-52
2022/07/26 00:47:38;;;;;;;8.52;6.18;;;23.30;93.40;;;;;;5114686;28;20173;-52
2022/07/26 00:50:07;;;;;;;13.40;6.18;;;23.30;95.10;;;;;;5115413;28;20483;-51
2022/07/26 00:52:33;;;;;;;9.25;6.07;;;23.40;95.50;;;;;;5062080;28;20040;-50
2022/07/26 00:54:59;;;;;;;12.40;6.90;;;23.30;95.70;;;;;;5115276;28;20046;-51
2022/07/26 00:57:24;;;;;;;12.57;7.55;;;23.40;95.80;;;;;;5062719;28;20043;-51
2022/07/26 00:59:51;;;;;;;15.82;7.88;;;23.30;95.80;;;;;;5114850;28;20063;-52
2022/07/26 01:02:17;;;;;;;11.18;7.60;;;23.30;96.60;;;;;;5114584;28;20501;-51
2022/07/26 01:04:43;;;;;;;12.98;7.57;;;23.30;97.70;;;;;;5110732;28;20035;-52
2022/07/26 01:07:11;;;;;;;12.10;6.88;;;23.30;99.90;;;;;;5114904;28;20368;-52
2022/07/26 01:09:38;;;;;;;12.63;7.85;;;23.20;88.50;;;;;;5110837;28;20062;-52
2022/07/26 01:12:04;;;;;;;10.10;8.13;;;23.20;88.50;;;;;;5114735;28;20076;-50
2022/07/26 01:14:30;;;;;;;15.05;8.27;;;23.20;88.50;;;;;;5061649;28;20040;-50
2022/07/26 01:16:56;;;;;;;11.75;7.93;;;23.20;88.60;;;;;;5078213;28;20079;-52
2022/07/26 01:19:21;;;;;;;13.25;7.93;;;23.20;88.80;;;;;;5112556;28;20019;-52
2022/07/26 01:21:49;;;;;;;11.07;7.32;;;23.20;89.00;;;;;;5044251;28;20452;-51
2022/07/26 01:24:14;;;;;;;11.15;6.55;;;23.20;89.30;;;;;;5114725;28;20028;-52
2022/07/26 01:26:40;;;;;;;10.77;6.30;;;23.00;89.50;;;;;;5078090;28;20122;-50
2022/07/26 01:29:06;;;;;;;12.70;5.75;;;22.20;90.60;;;;;;5061713;28;20042;-50
2022/07/26 01:31:32;;;;;;;10.45;6.25;;;22.40;90.70;;;;;;5113758;28;20028;-52
2022/07/26 01:33:58;;;;;;;10.90;6.97;;;22.50;90.60;;;;;;5114169;28;20027;-53
2022/07/26 01:36:24;;;;;;;11.88;5.88;;;22.60;90.90;;;;;;5061626;28;20054;-51
2022/07/26 01:38:50;;;;;;;10.48;5.68;;;22.60;90.90;;;;;;5114005;28;20061;-49
2022/07/26 01:41:15;;;;;;;12.73;6.07;;;22.60;90.90;;;;;;5061556;28;20032;-50
2022/07/26 01:43:41;;;;;;;11.13;5.93;;;22.60;90.90;;;;;;5113744;28;20031;-51
2022/07/26 01:46:08;;;;;;;11.50;6.07;;;22.60;91.10;;;;;;5113848;28;20028;-49
2022/07/26 01:48:34;;;;;;;9.85;5.80;;;22.60;90.90;;;;;;5114058;28;20364;-49
2022/07/26 01:51:01;;;;;;;9.50;5.88;;;22.70;91.00;;;;;;5062167;28;20436;-49
2022/07/26 01:53:27;;;;;;;13.55;5.93;;;22.70;91.00;;;;;;5114295;28;20038;-49
2022/07/26 01:55:53;;;;;;;8.45;5.38;;;22.70;91.00;;;;;;5113539;28;20027;-50
2022/07/26 01:58:19;;;;;;;15.90;6.63;;;22.60;91.20;;;;;;5113664;28;20050;-51
2022/07/26 02:00:45;;;;;;;7.10;5.05;;;22.50;91.40;;;;;;5044910;28;20115;-50
2022/07/26 02:03:11;;;;;;;8.95;5.13;;;22.30;91.30;;;;;;5113695;28;20055;-50
2022/07/26 02:05:36;;;;;;;7.25;5.72;;;22.20;92.20;;;;;;5113492;28;20027;-51
2022/07/26 02:08:03;;;;;;;6.47;4.75;;;21.60;92.20;;;;;;5045184;28;20046;-49
2022/07/26 02:10:59;;;;;;;9.50;5.43;;;21.40;92.70;;;;;;5076023;28;20115;-50
2022/07/26 02:13:14;;;;;;;7.07;5.20;;;;;;;;;;5069529;28;20047;-51
2022/07/26 02:15:40;;;;;;;8.35;5.10;;;;;;;;;;5113899;28;20085;-49
2022/07/26 02:18:06;;;;;;;10.10;5.32;;;21.60;92.90;;;;;;5060023;28;20058;-49
2022/07/26 02:20:32;;;;;;;5.88;5.28;;;21.50;92.80;;;;;;5060452;28;20035;-49
2022/07/26 02:23:00;;;;;;;9.63;5.75;;;;;;;;;;5113191;28;20035;-49
2022/07/26 02:25:26;;;;;;;8.00;5.68;;;20.60;99.90;;;;;;5113374;28;20467;-49
2022/07/26 02:27:52;;;;;;;9.32;6.03;;;20.70;94.10;;;;;;5113718;28;20015;-49
2022/07/26 02:30:18;;;;;;;11.23;6.40;;;;;;;;;;5077003;28;20509;-51
2022/07/26 02:32:44;;;;;;;9.57;5.13;;;20.00;94.90;;;;;;5112932;28;20032;-50
2022/07/26 02:35:10;;;;;;;7.38;5.35;;;19.70;95.90;;;;;;5113735;28;20031;-48
2022/07/26 02:37:39;;;;;;;7.72;5.40;;;19.50;96.70;;;;;;5113041;28;20357;-50
2022/07/26 02:40:05;;;;;;;7.90;5.55;;;19.40;97.50;;;;;;5113104;28;20044;-51
2022/07/26 02:42:31;;;;;;;11.00;6.15;;;19.40;98.00;;;;;;5015664;28;20032;-51
2022/07/26 02:44:57;;;;;;;6.90;5.32;;;19.50;98.30;;;;;;5112770;28;20023;-51
2022/07/26 02:47:23;;;;;;;8.68;5.15;;;19.50;98.60;;;;;;5060133;28;20053;-52
2022/07/26 02:49:49;;;;;;;7.43;5.03;;;19.40;99.30;;;;;;5113145;28;20036;-51
2022/07/26 02:52:15;;;;;;;10.95;5.43;;;19.30;99.80;;;;;;5112850;28;20024;-50
2022/07/26 02:54:41;;;;;;;8.25;5.88;;;19.30;99.90;;;;;;5112642;28;20028;-49
2022/07/26 02:57:07;;;;;;;8.10;5.60;;;19.40;99.90;;;;;;5112429;28;20043;-51
2022/07/26 02:59:32;;;;;;;7.05;5.65;;;19.70;99.90;;;;;;5113155;28;20026;-49
2022/07/26 03:01:58;;;;;;;9.80;6.03;;;19.50;99.90;;;;;;5112460;28;20027;-51
2022/07/26 03:04:24;;;;;;;10.48;5.88;;;19.50;99.90;;;;;;5060054;28;20043;-51
2022/07/26 03:06:49;;;;;;;12.80;5.93;;;19.60;99.90;;;;;;5112336;28;20080;-50
2022/07/26 03:09:16;;;;;;;12.43;5.93;;;19.50;99.90;;;;;;5112979;28;20028;-50
2022/07/26 03:11:42;;;;;;;11.05;6.00;;;19.50;99.90;;;;;;5112786;28;20084;-49
2022/07/26 03:14:07;;;;;;;7.85;5.90;;;19.20;99.90;;;;;;5112134;28;20452;-49
2022/07/26 03:16:33;;;;;;;7.15;5.93;;;19.10;99.90;;;;;;5059175;28;20043;-50
2022/07/26 03:19:00;;;;;;;9.98;6.38;;;19.10;99.90;;;;;;5059963;28;20035;-52
2022/07/26 03:21:26;;;;;;;8.38;6.00;;;19.10;99.90;;;;;;5112133;28;20028;-51
2022/07/26 03:23:52;;;;;;;8.13;5.78;;;19.10;99.90;;;;;;5112137;28;20031;-51
2022/07/26 03:26:18;;;;;;;8.82;6.28;;;19.10;99.90;;;;;;5059664;28;20075;-50
2022/07/26 03:28:44;;;;;;;15.68;8.00;;;19.10;99.90;;;;;;5111686;28;20028;-50
2022/07/26 03:31:11;;;;;;;8.70;6.75;;;19.10;99.90;;;;;;5112910;28;20030;-49
2022/07/26 03:33:37;;;;;;;10.25;6.80;;;;;;;;;;5111925;28;20031;-50
2022/07/26 03:36:04;;;;;;;7.47;6.20;;;19.10;99.90;;;;;;5112520;28;20080;-51
2022/07/26 03:38:30;;;;;;;10.88;6.32;;;19.20;99.90;;;;;;5059219;28;20043;-52
2022/07/26 03:40:55;;;;;;;12.30;7.72;;;19.10;99.90;;;;;;5101227;28;20527;-50
2022/07/26 03:43:21;;;;;;;7.72;6.72;;;19.30;99.90;;;;;;5039150;28;20107;-51
2022/07/26 03:45:47;;;;;;;95.88;14.55;;;19.70;99.90;;;;;;5091811;28;20043;-52
2022/07/26 03:48:13;;;;;;;16.60;7.05;;;20.10;99.90;;;;;;5091311;28;20097;-51
2022/07/26 03:50:54;;;;;;;9.85;5.57;;;20.30;99.90;;;;;;4994823;28;20061;-50
2022/07/26 03:53:19;;;;;;;8.73;5.40;;;20.60;99.90;;;;;;5009515;28;20045;-51
2022/07/26 03:58:29;;;;;;;11.73;7.65;;;20.80;99.90;;;;;;5009221;28;20056;-52
2022/07/26 04:00:55;;;;;;;14.25;7.50;;;20.90;99.90;;;;;;5009350;28;20117;-51
2022/07/26 04:03:21;;;;;;;15.60;6.95;;;20.90;99.90;;;;;;4989038;28;20425;-51
2022/07/26 04:05:47;;;;;;;8.77;6.53;;;21.00;99.90;;;;;;4987103;28;20053;-49
2022/07/26 04:08:13;;;;;;;13.40;7.10;;;21.20;99.90;;;;;;4939739;28;20460;-50
2022/07/26 04:10:38;;;;;;;17.40;7.35;;;21.30;99.90;;;;;;4986691;28;20558;-50
2022/07/26 04:13:04;;;;;;;19.38;8.68;;;21.40;99.90;;;;;;4985482;28;20042;-51
2022/07/26 04:15:30;;;;;;;16.00;8.60;;;21.50;99.90;;;;;;4987672;28;20046;-50
2022/07/26 04:17:55;;;;;;;10.30;7.47;;;21.60;99.90;;;;;;4986297;28;20086;-52
2022/07/26 04:20:21;;;;;;;21.67;9.05;;;21.70;99.90;;;;;;4954211;28;20128;-49
2022/07/26 04:22:47;;;;;;;13.35;7.13;;;21.80;99.90;;;;;;4987142;28;20043;-51
2022/07/26 04:25:13;;;;;;;12.88;7.20;;;21.90;99.90;;;;;;4986196;28;20806;-50
2022/07/26 04:27:38;;;;;;;12.70;7.30;;;21.90;99.90;;;;;;5004348;28;20037;-49
2022/07/26 04:30:06;;;;;;;9.27;6.93;;;21.90;99.90;;;;;;5036893;28;20052;-50
2022/07/26 04:32:32;;;;;;;9.27;6.47;;;21.90;99.90;;;;;;5041670;28;20040;-49
2022/07/26 04:34:57;;;;;;;10.52;7.07;;;21.90;99.90;;;;;;5075898;28;20048;-50
2022/07/26 04:37:23;;;;;;;14.60;7.90;;;22.00;99.90;;;;;;5090326;28;20127;-50
2022/07/26 04:39:49;;;;;;;11.77;7.45;;;22.00;99.90;;;;;;5014203;28;20041;-49
2022/07/26 04:42:14;;;;;;;10.35;7.45;;;22.10;99.90;;;;;;5093970;28;20038;-50
2022/07/26 04:44:40;;;;;;;17.52;8.35;;;22.10;99.90;;;;;;5094193;28;20028;-49
2022/07/26 04:47:06;;;;;;;10.73;8.02;;;22.20;99.90;;;;;;5094534;28;20478;-50
2022/07/26 04:49:32;;;;;;;15.68;8.15;;;22.20;99.90;;;;;;5050784;28;20042;-51
2022/07/26 04:51:58;;;;;;;10.88;7.40;;;22.20;99.90;;;;;;5094108;28;20032;-50
2022/07/26 04:54:24;;;;;;;17.38;8.25;;;23.10;99.90;;;;;;5093711;28;20553;-50
2022/07/26 04:56:50;;;;;;;11.52;7.45;;;23.00;99.90;;;;;;5079046;28;20118;-51
2022/07/26 04:59:16;;;;;;;12.40;7.55;;;22.80;99.90;;;;;;5093905;28;20522;-50
2022/07/26 05:01:43;;;;;;;22.23;8.90;;;23.00;99.90;;;;;;5093690;28;20031;-50
2022/07/26 05:04:09;;;;;;;15.20;8.27;;;22.70;99.90;;;;;;5093452;28;20527;-50
2022/07/26 05:06:35;;;;;;;12.18;8.35;;;22.80;99.90;;;;;;5093947;28;20031;-49
2022/07/26 05:09:01;;;;;;;14.55;8.10;;;23.10;99.90;;;;;;5093549;28;20028;-49
2022/07/26 05:11:27;;;;;;;18.98;8.75;;;23.50;99.90;;;;;;5093447;28;20032;-50
2022/07/26 05:13:53;;;;;;;18.55;8.95;;;;;;;;;;5093903;28;20032;-51
2022/07/26 05:16:19;;;;;;;20.88;8.57;;;;;;;;;;5091455;28;20447;-50
2022/07/26 05:18:45;;;;;;;16.83;7.80;;;23.60;99.90;;;;;;5057746;28;20105;-51
2022/07/26 05:21:11;;;;;;;12.15;8.18;;;23.50;99.90;;;;;;5093354;28;20028;-50
2022/07/26 05:23:37;;;;;;;14.07;8.60;;;;;;;;;;5057612;28;20028;-50
2022/07/26 05:26:03;;;;;;;14.82;8.50;;;23.90;99.60;;;;;;5093295;28;20074;-50
2022/07/26 05:28:29;;;;;;;16.00;8.75;;;24.00;99.70;;;;;;5093637;28;20063;-50
2022/07/26 05:30:54;;;;;;;17.52;9.43;;;24.10;99.80;;;;;;5093165;28;20503;-49
2022/07/26 05:33:20;;;;;;;16.05;10.35;;;24.10;99.90;;;;;;5091146;28;20475;-50
2022/07/26 05:35:46;;;;;;;19.50;13.95;;;24.30;99.70;;;;;;5093645;28;20471;-50
2022/07/26 05:38:12;;;;;;;19.58;14.95;;;;;;;;;;5040675;28;20093;-50
2022/07/26 05:40:38;;;;;;;20.13;15.73;;;;;;;;;;5093097;28;20055;-50
2022/07/26 05:43:04;;;;;;;26.05;17.10;;;24.70;98.50;;;;;;5091019;28;20031;-51
2022/07/26 05:45:30;;;;;;;23.95;18.13;;;24.80;98.70;;;;;;5092765;28;20032;-50
2022/07/26 05:47:56;;;;;;;25.70;19.05;;;;;;;;;;5106692;28;20047;-50
2022/07/26 05:50:22;;;;;;;28.42;17.63;;;25.10;97.50;;;;;;5110990;28;20027;-50
2022/07/26 05:52:48;;;;;;;22.15;15.45;;;;;;;;;;5090804;28;20032;-50
2022/07/26 05:55:14;;;;;;;26.75;14.82;;;25.40;97.40;;;;;;5108970;28;20429;-50
2022/07/26 05:57:46;;;;;;;19.80;15.45;;;25.50;99.90;;;;;;5108724;28;20051;-51
2022/07/26 06:00:12;;;;;;;23.58;15.30;;;25.60;98.00;;;;;;5106705;28;20031;-50
2022/07/26 06:02:39;;;;;;;20.67;14.07;;;26.40;99.50;;;;;;5073983;28;20109;-50
2022/07/26 06:05:05;;;;;;;21.33;11.20;;;;;;;;;;5107448;28;20054;-50
2022/07/26 06:07:32;;;;;;;13.40;10.63;;;;;;;;;;5108960;28;20483;-50
2022/07/26 06:09:58;;;;;;;17.73;11.00;;;;;;;;;;5105597;28;20066;-50
2022/07/26 06:12:24;;;;;;;13.70;9.43;;;25.80;94.90;;;;;;5110817;28;20031;-51
2022/07/26 06:14:50;;;;;;;14.70;9.55;;;;;;;;;;5087461;28;20093;-52
2022/07/26 06:17:16;;;;;;;13.07;9.32;;;;;;;;;;5057227;28;20100;-51
2022/07/26 06:19:42;;;;;;;9.60;6.72;;;26.20;99.00;;;;;;5074418;28;20038;-50
2022/07/26 06:22:08;;;;;;;9.30;6.05;;;26.50;99.90;;;;;;5105765;28;20103;-50
2022/07/26 06:24:34;;;;;;;7.97;5.82;;;26.40;99.90;;;;;;5110374;28;20520;-49
2022/07/26 06:26:59;;;;;;;8.50;5.57;;;26.40;99.90;;;;;;5105246;28;20503;-50
2022/07/26 06:29:26;;;;;;;19.42;7.13;;;;;;;;;;5107935;28;20072;-51
2022/07/26 06:31:51;;;;;;;13.10;5.93;;;27.00;99.90;;;;;;5107838;28;20036;-50
2022/07/26 06:34:17;;;;;;;11.32;6.00;;;27.00;95.40;;;;;;5110036;28;20028;-50
2022/07/26 06:36:43;;;;;;;8.85;5.13;;;27.40;95.50;;;;;;5104309;28;20118;-50
2022/07/26 06:39:09;;;;;;;5.50;4.45;;;27.00;99.90;;;;;;5109235;28;20020;-50
2022/07/26 06:41:35;;;;;;;8.15;4.75;;;27.30;97.50;;;;;;5106003;28;20035;-50
2022/07/26 06:44:01;;;;;;;11.98;4.60;;;;;;;;;;5073768;28;20032;-50
2022/07/26 06:46:27;;;;;;;11.32;5.45;;;;;;;;;;5106827;28;20047;-50
2022/07/26 06:48:54;;;;;;;6.10;5.10;;;27.80;97.60;;;;;;5084831;28;20031;-52
2022/07/26 06:51:21;;;;;;;9.10;4.82;;;;;;;;;;5087457;28;20032;-50
2022/07/26 06:53:47;;;;;;;6.38;4.90;;;;;;;;;;5088726;28;20035;-50
2022/07/26 06:56:14;;;;;;;8.02;5.38;;;;;;;;;;5087809;28;20024;-49
2022/07/26 06:58:41;;;;;;;8.50;5.43;;;;;;;;;;5086864;28;20039;-51
2022/07/26 07:01:07;;;;;;;6.47;4.47;;;;;;;;;;5071203;28;20038;-51
2022/07/26 07:03:33;;;;;;;7.03;4.50;;;;;;;;;;5088866;28;20040;-50
2022/07/26 07:05:59;;;;;;;9.20;5.00;;;28.80;90.00;;;;;;5086681;28;20028;-51
2022/07/26 07:08:25;;;;;;;8.50;4.47;;;;;;;;;;5051065;28;20047;-50
2022/07/26 07:10:52;;;;;;;6.88;4.40;;;;;;;;;;5090926;28;20028;-50
2022/07/26 07:13:19;;;;;;;7.10;4.90;;;;;;;;;;5090666;28;20019;-50
2022/07/26 07:15:45;;;;;;;9.35;4.82;;;29.40;89.40;;;;;;5090126;28;20047;-51
2022/07/26 07:18:10;;;;;;;7.75;4.38;;;29.40;87.10;;;;;;5090480;28;20031;-51
2022/07/26 07:20:38;;;;;;;12.77;5.22;;;29.50;87.20;;;;;;5020842;28;20491;-51
2022/07/26 07:23:04;;;;;;;9.52;4.75;;;;;;;;;;5087143;28;20036;-50
2022/07/26 07:25:30;;;;;;;9.88;5.75;;;30.10;99.40;;;;;;5090140;28;20081;-50
2022/07/26 07:27:56;;;;;;;11.35;6.22;;;;;;;;;;5055170;28;20045;-50
2022/07/26 07:30:22;;;;;;;11.07;6.18;;;30.20;99.90;;;;;;5090258;28;20027;-50
2022/07/26 07:32:48;;;;;;;16.85;5.90;;;30.30;87.70;;;;;;5054363;28;20040;-53
2022/07/26 07:35:14;;;;;;;9.82;5.40;;;30.40;86.90;;;;;;5091288;28;20028;-53
2022/07/26 07:37:39;;;;;;;20.90;6.60;;;30.50;87.30;;;;;;5089563;28;20123;-53
2022/07/26 07:40:06;;;;;;;5.40;4.20;;;;;;;;;;5070411;28;20499;-52
2022/07/26 07:42:32;;;;;;;7.28;5.07;;;30.70;83.70;;;;;;5054661;28;20399;-53
2022/07/26 07:44:58;;;;;;;5.55;4.72;;;30.60;83.60;;;;;;5090515;28;20031;-52
2022/07/26 07:47:23;;;;;;;7.88;5.07;;;31.00;85.10;;;;;;5028085;28;20510;-52
2022/07/26 07:49:49;;;;;;;9.38;4.90;;;30.90;85.00;;;;;;5090629;28;20035;-53
2022/07/26 07:52:15;;;;;;;8.90;4.82;;;31.20;83.80;;;;;;5037880;28;20040;-53
2022/07/26 07:54:41;;;;;;;7.80;4.80;;;31.40;84.30;;;;;;5054923;28;20131;-52
2022/07/26 07:57:06;;;;;;;7.88;4.75;;;31.50;83.40;;;;;;5090164;28;20039;-54
2022/07/26 07:59:32;;;;;;;6.20;4.90;;;31.60;83.30;;;;;;5053911;28;20047;-52
2022/07/26 08:01:58;;;;;;;9.77;4.63;;;31.90;94.80;;;;;;5046614;28;20040;-52
2022/07/26 08:04:24;;;;;;;9.52;4.30;;;;;;;;;;5046976;28;20033;-50
2022/07/26 08:06:51;;;;;;;9.88;5.10;;;31.40;99.90;;;;;;5043418;28;20644;-53
2022/07/26 08:09:18;;;;;;;7.15;4.40;;;;;;;;;;5016366;28;20444;-53
2022/07/26 08:11:44;;;;;;;9.57;4.75;;;32.20;95.40;;;;;;5046728;28;20049;-56
2022/07/26 08:14:10;;;;;;;8.95;4.70;;;32.20;89.30;;;;;;5015412;28;20532;-56
2022/07/26 08:16:36;;;;;;;7.25;4.82;;;32.30;81.00;;;;;;5050736;28;20048;-51
2022/07/26 08:19:02;;;;;;;7.57;4.95;;;;;;;;;;5034485;28;20775;-56
2022/07/26 08:21:28;;;;;;;6.75;4.50;;;;;;;;;;5050802;28;20076;-52
2022/07/26 08:23:54;;;;;;;6.10;4.07;;;32.70;79.50;;;;;;5051444;28;20051;-53
2022/07/26 08:26:19;;;;;;;6.82;4.63;;;32.80;79.60;;;;;;5001242;28;20500;-55
2022/07/26 08:28:45;;;;;;;10.90;5.40;;;33.20;78.80;;;;;;5050647;28;20033;-56
2022/07/26 08:31:11;;;;;;;7.50;4.68;;;32.90;78.10;;;;;;5051359;28;20029;-53
2022/07/26 08:33:36;;;;;;;8.45;4.68;;;33.10;78.60;;;;;;5084046;28;20121;-53
2022/07/26 08:36:03;;;;;;;6.95;4.50;;;33.30;79.50;;;;;;5088967;28;20063;-53
2022/07/26 08:38:29;;;;;;;5.53;4.47;;;;;;;;;;5041547;28;20499;-55
2022/07/26 08:40:54;;;;;;;8.13;4.38;;;33.20;99.00;;;;;;5093727;28;20375;-54
2022/07/26 08:43:21;;;;;;;8.43;4.65;;;33.70;85.60;;;;;;5041158;28;20055;-53
2022/07/26 08:45:48;;;;;;;6.50;4.88;;;34.10;90.50;;;;;;5094169;28;20031;-52
2022/07/26 08:48:13;;;;;;;8.45;4.72;;;33.80;79.70;;;;;;5093788;28;20423;-53
2022/07/26 08:50:40;;;;;;;6.63;4.43;;;33.90;79.20;;;;;;5059001;28;20043;-56
2022/07/26 08:53:11;;;;;;;7.80;4.43;;;34.00;78.80;;;;;;5094409;28;20424;-56
2022/07/26 08:55:37;;;;;;;8.27;5.05;;;34.30;94.30;;;;;;5093068;28;20032;-54
2022/07/26 08:58:04;;;;;;;6.40;4.95;;;;;;;;;;5006724;28;20120;-57
2022/07/26 09:00:31;;;;;;;8.32;4.75;;;34.60;96.50;;;;;;5095199;28;20568;-56
2022/07/26 09:02:59;;;;;;;7.10;4.72;;;34.30;76.70;;;;;;5053870;28;20032;-58
2022/07/26 09:05:36;;;;;;;6.03;4.57;;;34.40;77.30;;;;;;5105384;28;20390;-57
2022/07/26 09:08:25;;;;;;;6.30;4.40;;;34.30;76.50;;;;;;5094957;28;20036;-57
2022/07/26 09:10:51;;;;;;;4.97;4.47;;;34.10;76.80;;;;;;5094512;28;20056;-57
2022/07/26 09:13:17;;;;;;;7.38;4.80;;;34.80;81.50;;;;;;5057956;28;20078;-57
2022/07/26 09:15:43;;;;;;;7.82;4.45;;;;;;;;;;5093542;28;20751;-58
2022/07/26 09:18:25;;;;;;;4.82;4.32;;;;;;;;;;5095841;28;20546;-58
2022/07/26 09:20:51;;;;;;;9.50;5.07;;;35.30;98.60;;;;;;5096989;28;20119;-58
2022/07/26 09:23:17;;;;;;;8.35;5.20;;;35.50;85.30;;;;;;5039985;28;20119;-57
2022/07/26 09:25:44;;;;;;;6.68;4.38;;;35.30;73.80;;;;;;5093999;28;20036;-59
2022/07/26 09:28:28;;;;;;;11.68;4.65;;;35.50;74.20;;;;;;5094255;28;20028;-57
2022/07/26 09:31:02;;;;;;;6.78;4.88;;;35.60;73.10;;;;;;5076533;28;20482;-57
2022/07/26 09:33:48;;;;;;;6.75;4.82;;;35.80;73.60;;;;;;5093161;28;20021;-57
2022/07/26 09:36:14;;;;;;;5.47;4.70;;;;;;;;;;5101641;28;20555;-57
2022/07/26 09:38:47;;;;;;;8.10;4.28;;;36.20;99.90;;;;;;5094344;28;20050;-57
2022/07/26 09:41:28;;;;;;;7.07;4.63;;;35.90;75.40;;;;;;5081179;28;20032;-59
2022/07/26 09:43:58;;;;;;;5.32;4.82;;;;;;;;;;5098407;28;20036;-57
2022/07/26 09:46:25;;;;;;;7.97;4.40;;;36.40;86.10;;;;;;5093751;28;20036;-59
2022/07/26 09:48:54;;;;;;;5.60;4.40;;;36.90;72.40;;;;;;5092808;28;20296;-57
2022/07/26 09:51:34;;;;;;;5.53;4.53;;;37.20;74.10;;;;;;5099459;28;20044;-57
2022/07/26 09:54:00;;;;;;;6.35;4.45;;;;;;;;;;5099046;28;20036;-59
2022/07/26 09:56:40;;;;;;;5.88;4.53;;;;;;;;;;5094467;28;20482;-59
2022/07/26 09:59:06;;;;;;;7.07;4.90;;;37.10;96.50;;;;;;5092121;28;20035;-57
2022/07/26 10:01:33;;;;;;;9.00;4.38;;;;;;;;;;5075811;28;20395;-59
2022/07/26 10:03:59;;;;;;;10.70;4.45;;;;;;;;;;5098661;28;20502;-58
2022/07/26 10:06:25;;;;;;;5.00;4.50;;;;;;;;;;5097191;28;20139;-58
2022/07/26 10:08:51;;;;;;;5.13;4.53;;;;;;;;;;5098066;28;20023;-58
2022/07/26 10:11:19;;;;;;;6.07;4.45;;;37.90;89.50;;;;;;5091318;28;20028;-59
2022/07/26 10:13:45;;;;;;;6.60;4.50;;;;;;;;;;5097194;28;20476;-58
2022/07/26 10:16:32;;;;;;;7.50;4.60;;;38.20;70.40;;;;;;5093418;28;20471;-58
2022/07/26 10:18:58;;;;;;;5.25;3.90;;;;;;;;;;5094547;28;20035;-57
2022/07/26 10:21:24;;;;;;;6.50;4.18;;;;;;;;;;5101092;28;20031;-60
2022/07/26 10:23:51;;;;;;;7.18;4.88;;;;;;;;;;5059661;28;20047;-59
2022/07/26 10:26:35;;;;;;;6.82;4.50;;;;;;;;;;5094681;28;20028;-57
2022/07/26 10:29:16;;;;;;;5.45;4.38;;;;;;;;;;5094762;28;20526;-58
2022/07/26 10:31:50;;;;;;;8.98;5.45;;;;;;;;;;5090105;28;20430;-60
2022/07/26 10:34:34;;;;;;;5.43;3.85;;;38.90;68.80;;;;;;5093319;28;20493;-58
2022/07/26 10:37:26;;;;;;;6.85;4.32;;;38.20;66.50;;;;;;5099793;28;20465;-59
2022/07/26 10:40:17;;;;;;;7.13;4.55;;;38.60;68.40;;;;;;5016964;28;20076;-58
2022/07/26 10:42:43;;;;;;;5.20;4.20;;;39.00;68.30;;;;;;5014789;28;20833;-59
2022/07/26 10:45:17;;;;;;;5.32;4.35;;;39.30;82.50;;;;;;5021871;28;20041;-55
2022/07/26 10:48:21;;;;;;;7.38;4.45;;;39.00;77.50;;;;;;5004483;28;20054;-54
2022/07/26 10:50:50;;;;;;;6.85;4.70;;;38.70;76.50;;;;;;5004662;28;20433;-55
2022/07/26 10:53:24;;;;;;;4.60;4.00;;;38.60;75.10;;;;;;5009361;28;20509;-58
2022/07/26 10:55:51;;;;;;;6.43;3.90;;;38.50;80.80;;;;;;5008254;28;20026;-54
2022/07/26 10:58:17;;;;;;;5.82;3.92;;;38.60;76.50;;;;;;5008057;28;20041;-54
2022/07/26 11:01:03;;;;;;;6.18;4.40;;;38.60;73.60;;;;;;5006403;28;20048;-52
2022/07/26 11:03:55;;;;;;;8.00;4.40;;;38.80;76.00;;;;;;5008673;28;20045;-52
2022/07/26 11:06:21;;;;;;;8.27;4.32;;;38.90;66.50;;;;;;4958936;28;20042;-55
2022/07/26 11:08:47;;;;;;;6.65;3.88;;;38.50;65.90;;;;;;5013300;28;20080;-54
2022/07/26 11:11:25;;;;;;;14.68;4.80;;;38.40;65.00;;;;;;4989860;28;20103;-53
2022/07/26 11:13:51;;;;;;;7.05;4.55;;;38.60;64.60;;;;;;5008598;28;20046;-55
2022/07/26 11:16:16;;;;;;;6.75;4.35;;;38.60;65.30;;;;;;5029329;28;20047;-53
2022/07/26 11:18:42;;;;;;;14.18;4.35;;;39.20;73.70;;;;;;5079451;28;20052;-54
2022/07/26 11:21:17;;;;;;;12.52;4.70;;;39.00;66.20;;;;;;5090812;28;20024;-54
2022/07/26 11:23:46;;;;;;;7.40;4.20;;;38.80;68.40;;;;;;5089530;28;20498;-54
2022/07/26 11:26:18;;;;;;;7.43;4.50;;;38.90;67.60;;;;;;5087409;28;20071;-54
2022/07/26 11:28:56;;;;;;;5.90;4.47;;;38.70;67.70;;;;;;5088243;28;20035;-51
2022/07/26 11:31:25;;;;;;;6.32;4.10;;;38.60;66.20;;;;;;5085070;28;20502;-55
2022/07/26 11:33:52;;;;;;;12.85;4.72;;;38.90;66.60;;;;;;5090362;28;20032;-53
2022/07/26 11:36:39;;;;;;;6.22;4.43;;;39.20;66.00;;;;;;5086069;28;20052;-52
2022/07/26 11:39:11;;;;;;;8.70;4.63;;;39.40;72.80;;;;;;5069637;28;20052;-54
2022/07/26 11:41:40;;;;;;;7.43;4.00;;;39.40;68.30;;;;;;5045710;28;20051;-52
2022/07/26 11:44:13;;;;;;;5.25;3.60;;;39.10;69.50;;;;;;4995036;28;20499;-51
2022/07/26 11:46:45;;;;;;;7.72;4.00;;;39.10;70.40;;;;;;5040937;28;20045;-50
2022/07/26 11:49:24;;;;;;;7.20;3.83;;;38.40;64.20;;;;;;5024906;28;20509;-54
2022/07/26 11:51:58;;;;;;;6.20;3.28;;;38.60;63.30;;;;;;5027727;28;20029;-53
2022/07/26 11:54:28;;;;;;;7.32;4.03;;;38.50;63.30;;;;;;5026780;28;20044;-50
2022/07/26 11:56:56;;;;;;;4.15;3.58;;;38.90;64.40;;;;;;5024251;28;20041;-49
2022/07/26 11:59:24;;;;;;;5.65;4.03;;;39.40;66.00;;;;;;4994033;28;20048;-51
2022/07/26 12:01:50;;;;;;;12.15;4.28;;;;;;;;;;5026375;28;20049;-50
2022/07/26 12:04:24;;;;;;;5.00;3.72;;;39.80;67.90;;;;;;4992352;28;20041;-51
2022/07/26 12:06:55;;;;;;;4.88;3.70;;;40.10;64.00;;;;;;5078185;28;20056;-50
2022/07/26 12:09:49;;;;;;;4.80;3.38;;;40.20;62.50;;;;;;5073526;28;20048;-50
2022/07/26 12:12:22;;;;;;;5.88;3.88;;;39.90;66.70;;;;;;5082739;28;20636;-50
2022/07/26 12:14:57;;;;;;;6.07;3.80;;;39.80;71.20;;;;;;5091961;28;20035;-50
2022/07/26 12:17:22;;;;;;;6.22;3.65;;;39.60;65.70;;;;;;5089822;28;20043;-50
2022/07/26 12:19:48;;;;;;;5.75;3.70;;;39.60;66.60;;;;;;5073135;28;20040;-50
2022/07/26 12:22:16;;;;;;;6.80;3.70;;;39.90;68.60;;;;;;5091973;28;20057;-50
2022/07/26 12:24:51;;;;;;;6.07;3.70;;;40.10;67.20;;;;;;5035162;28;20075;-50
2022/07/26 12:27:29;;;;;;;7.97;3.53;;;40.30;66.80;;;;;;5090745;28;20431;-50
2022/07/26 12:30:01;;;;;;;5.07;4.00;;;40.40;68.10;;;;;;5089764;28;20040;-50
2022/07/26 12:32:36;;;;;;;6.43;3.75;;;40.60;69.30;;;;;;5041590;28;20047;-50
2022/07/26 12:35:05;;;;;;;6.82;4.60;;;40.50;68.50;;;;;;5091376;28;20025;-50
2022/07/26 12:37:33;;;;;;;5.10;3.95;;;40.60;70.20;;;;;;5090826;28;20036;-51
2022/07/26 12:39:59;;;;;;;6.30;3.50;;;40.80;72.80;;;;;;5089983;28;20560;-51
2022/07/26 12:42:34;;;;;;;6.72;3.60;;;40.70;76.60;;;;;;5090114;28;20476;-50
2022/07/26 12:45:03;;;;;;;4.57;4.18;;;40.70;75.30;;;;;;5052365;28;20612;-51
2022/07/26 12:47:29;;;;;;;9.85;3.95;;;;;;;;;;5092140;28;20048;-51
2022/07/26 12:49:55;;;;;;;4.70;3.78;;;41.10;92.20;;;;;;5093544;28;20092;-50
2022/07/26 12:52:22;;;;;;;6.55;4.15;;;40.80;63.50;;;;;;5051232;28;20040;-50
2022/07/26 12:54:50;;;;;;;4.20;3.38;;;41.10;62.10;;;;;;5090810;28;20035;-51
2022/07/26 12:57:16;;;;;;;4.40;3.05;;;41.20;62.50;;;;;;5086117;28;20727;-50
2022/07/26 12:59:42;;;;;;;4.43;3.58;;;41.30;60.90;;;;;;5066434;28;20036;-51
2022/07/26 13:02:08;;;;;;;4.30;2.80;;;41.10;60.90;;;;;;5092770;28;20063;-50
2022/07/26 13:04:35;;;;;;;5.63;2.80;;;41.10;59.70;;;;;;5091715;28;20032;-51
2022/07/26 13:07:01;;;;;;;4.22;3.15;;;41.00;59.80;;;;;;5041443;28;20039;-51